sensor_id;sensor_type;location;lat;lon;timestamp;temperature;humidity
18287;DHT22;9269;50.838;12.094;2022-11-23T00:01:37;5.40;72.00
18287;DHT22;9269;50.838;12.094;2022-11-23T00:04:07;5.70;72.00
18287;DHT22;9269;50.838;12.094;2022-11-23T00:06:40;5.60;72.10
18287;DHT22;9269;50.838;12.094;2022-11-23T00:09:09;5.50;71.80
18287;DHT22;9269;50.838;12.094;2022-11-23T00:11:38;5.50;72.00
18287;DHT22;9269;50.838;12.094;2022-11-23T00:14:07;5.80;72.10
18287;DHT22;9269;50.838;12.094;2022-11-23T00:16:35;5.60;72.00
18287;DHT22;9269;50.838;12.094;2022-11-23T00:19:04;5.60;72.10
18287;DHT22;9269;50.838;12.094;2022-11-23T00:21:32;5.50;72.20
18287;DHT22;9269;50.838;12.094;2022-11-23T00:24:03;5.60;72.10
18287;DHT22;9269;50.838;12.094;2022-11-23T00:26:32;5.80;72.10
18287;DHT22;9269;50.838;12.094;2022-11-23T00:29:00;5.50;72.20
18287;DHT22;9269;50.838;12.094;2022-11-23T00:31:29;5.60;72.00
18287;DHT22;9269;50.838;12.094;2022-11-23T00:33:59;5.70;72.20
18287;DHT22;9269;50.838;12.094;2022-11-23T00:36:28;5.60;72.20
18287;DHT22;9269;50.838;12.094;2022-11-23T00:38:57;5.70;72.10
18287;DHT22;9269;50.838;12.094;2022-11-23T00:41:27;5.60;72.20
18287;DHT22;9269;50.838;12.094;2022-11-23T00:43:56;5.60;72.10
18287;DHT22;9269;50.838;12.094;2022-11-23T00:46:27;5.70;72.10
18287;DHT22;9269;50.838;12.094;2022-11-23T00:48:56;5.70;72.40
18287;DHT22;9269;50.838;12.094;2022-11-23T00:51:29;5.80;72.20
18287;DHT22;9269;50.838;12.094;2022-11-23T00:53:58;5.70;72.20
18287;DHT22;9269;50.838;12.094;2022-11-23T00:56:31;5.90;72.20
18287;DHT22;9269;50.838;12.094;2022-11-23T00:59:01;5.90;72.10
18287;DHT22;9269;50.838;12.094;2022-11-23T01:01:32;5.90;72.30
18287;DHT22;9269;50.838;12.094;2022-11-23T01:04:04;5.90;72.30
18287;DHT22;9269;50.838;12.094;2022-11-23T01:06:37;5.90;72.20
18287;DHT22;9269;50.838;12.094;2022-11-23T01:09:09;6.00;72.30
18287;DHT22;9269;50.838;12.094;2022-11-23T01:11:41;6.00;72.40
18287;DHT22;9269;50.838;12.094;2022-11-23T01:14:10;6.00;72.30
18287;DHT22;9269;50.838;12.094;2022-11-23T01:16:39;6.10;72.30
18287;DHT22;9269;50.838;12.094;2022-11-23T01:19:13;6.10;72.50
18287;DHT22;9269;50.838;12.094;2022-11-23T01:21:42;6.10;72.20
18287;DHT22;9269;50.838;12.094;2022-11-23T01:24:12;6.10;72.30
18287;DHT22;9269;50.838;12.094;2022-11-23T01:26:43;6.20;72.30
18287;DHT22;9269;50.838;12.094;2022-11-23T01:29:11;6.20;72.30
18287;DHT22;9269;50.838;12.094;2022-11-23T01:31:40;6.10;72.30
18287;DHT22;9269;50.838;12.094;2022-11-23T01:34:14;6.20;72.30
18287;DHT22;9269;50.838;12.094;2022-11-23T01:36:45;6.20;72.30
18287;DHT22;9269;50.838;12.094;2022-11-23T01:39:14;6.00;72.30
18287;DHT22;9269;50.838;12.094;2022-11-23T01:41:45;6.10;72.30
18287;DHT22;9269;50.838;12.094;2022-11-23T01:44:26;6.20;72.30
18287;DHT22;9269;50.838;12.094;2022-11-23T01:46:57;6.20;72.40
18287;DHT22;9269;50.838;12.094;2022-11-23T01:49:30;6.40;72.40
18287;DHT22;9269;50.838;12.094;2022-11-23T01:52:05;6.20;72.40
18287;DHT22;9269;50.838;12.094;2022-11-23T01:54:37;6.40;72.40
18287;DHT22;9269;50.838;12.094;2022-11-23T01:57:13;6.40;72.40
18287;DHT22;9269;50.838;12.094;2022-11-23T01:59:45;6.40;72.30
18287;DHT22;9269;50.838;12.094;2022-11-23T02:02:14;6.20;72.40
18287;DHT22;9269;50.838;12.094;2022-11-23T02:04:44;6.30;72.30
18287;DHT22;9269;50.838;12.094;2022-11-23T02:07:16;6.50;72.20
18287;DHT22;9269;50.838;12.094;2022-11-23T02:09:46;6.40;72.30
18287;DHT22;9269;50.838;12.094;2022-11-23T02:12:16;6.60;72.20
18287;DHT22;9269;50.838;12.094;2022-11-23T02:14:44;6.50;72.30
18287;DHT22;9269;50.838;12.094;2022-11-23T02:17:13;6.40;72.30
18287;DHT22;9269;50.838;12.094;2022-11-23T02:19:50;6.50;72.20
18287;DHT22;9269;50.838;12.094;2022-11-23T02:22:27;6.60;72.40
18287;DHT22;9269;50.838;12.094;2022-11-23T02:24:59;6.50;72.40
18287;DHT22;9269;50.838;12.094;2022-11-23T02:27:30;6.50;72.40
18287;DHT22;9269;50.838;12.094;2022-11-23T02:30:00;6.60;72.30
18287;DHT22;9269;50.838;12.094;2022-11-23T02:32:30;6.60;72.20
18287;DHT22;9269;50.838;12.094;2022-11-23T02:34:58;6.60;72.30
18287;DHT22;9269;50.838;12.094;2022-11-23T02:37:27;6.60;72.10
18287;DHT22;9269;50.838;12.094;2022-11-23T02:39:57;6.50;72.10
18287;DHT22;9269;50.838;12.094;2022-11-23T02:42:26;6.60;72.30
18287;DHT22;9269;50.838;12.094;2022-11-23T02:45:01;6.60;72.20
18287;DHT22;9269;50.838;12.094;2022-11-23T02:47:32;6.60;72.20
18287;DHT22;9269;50.838;12.094;2022-11-23T02:50:01;6.70;72.20
18287;DHT22;9269;50.838;12.094;2022-11-23T02:52:29;6.40;72.20
18287;DHT22;9269;50.838;12.094;2022-11-23T02:54:57;6.40;72.20
18287;DHT22;9269;50.838;12.094;2022-11-23T02:57:26;6.30;72.20
18287;DHT22;9269;50.838;12.094;2022-11-23T02:59:55;6.50;72.10
18287;DHT22;9269;50.838;12.094;2022-11-23T03:02:24;6.40;72.20
18287;DHT22;9269;50.838;12.094;2022-11-23T03:04:53;6.30;72.20
18287;DHT22;9269;50.838;12.094;2022-11-23T03:07:21;6.30;72.40
18287;DHT22;9269;50.838;12.094;2022-11-23T03:09:50;6.30;72.30
18287;DHT22;9269;50.838;12.094;2022-11-23T03:12:18;6.40;72.40
18287;DHT22;9269;50.838;12.094;2022-11-23T03:14:47;6.30;72.30
18287;DHT22;9269;50.838;12.094;2022-11-23T03:17:16;6.30;72.30
18287;DHT22;9269;50.838;12.094;2022-11-23T03:19:46;6.30;72.30
18287;DHT22;9269;50.838;12.094;2022-11-23T03:22:14;6.20;72.40
18287;DHT22;9269;50.838;12.094;2022-11-23T03:24:43;6.30;72.30
18287;DHT22;9269;50.838;12.094;2022-11-23T03:27:11;6.20;72.50
18287;DHT22;9269;50.838;12.094;2022-11-23T03:29:40;6.20;72.30
18287;DHT22;9269;50.838;12.094;2022-11-23T03:32:08;6.20;72.30
18287;DHT22;9269;50.838;12.094;2022-11-23T03:34:36;6.20;72.40
18287;DHT22;9269;50.838;12.094;2022-11-23T03:37:06;6.20;72.30
18287;DHT22;9269;50.838;12.094;2022-11-23T03:39:35;6.20;72.40
18287;DHT22;9269;50.838;12.094;2022-11-23T03:42:05;6.10;72.50
18287;DHT22;9269;50.838;12.094;2022-11-23T03:44:33;6.30;72.30
18287;DHT22;9269;50.838;12.094;2022-11-23T03:47:04;6.10;72.30
18287;DHT22;9269;50.838;12.094;2022-11-23T03:49:33;6.10;72.30
18287;DHT22;9269;50.838;12.094;2022-11-23T03:52:02;6.00;72.30
18287;DHT22;9269;50.838;12.094;2022-11-23T03:54:33;6.10;72.30
18287;DHT22;9269;50.838;12.094;2022-11-23T03:57:03;6.10;72.20
18287;DHT22;9269;50.838;12.094;2022-11-23T03:59:31;5.90;72.10
18287;DHT22;9269;50.838;12.094;2022-11-23T04:02:00;6.10;72.20
18287;DHT22;9269;50.838;12.094;2022-11-23T04:04:29;6.00;72.10
18287;DHT22;9269;50.838;12.094;2022-11-23T04:06:58;6.00;72.10
18287;DHT22;9269;50.838;12.094;2022-11-23T04:09:26;6.00;72.10
18287;DHT22;9269;50.838;12.094;2022-11-23T04:11:57;6.00;72.20
18287;DHT22;9269;50.838;12.094;2022-11-23T04:14:25;6.00;72.40
18287;DHT22;9269;50.838;12.094;2022-11-23T04:16:54;6.10;72.20
18287;DHT22;9269;50.838;12.094;2022-11-23T04:19:22;6.20;72.30
18287;DHT22;9269;50.838;12.094;2022-11-23T04:21:51;6.00;72.30
18287;DHT22;9269;50.838;12.094;2022-11-23T04:24:19;6.10;72.20
18287;DHT22;9269;50.838;12.094;2022-11-23T04:26:47;6.10;72.30
18287;DHT22;9269;50.838;12.094;2022-11-23T04:29:17;6.10;72.30
18287;DHT22;9269;50.838;12.094;2022-11-23T04:31:46;6.00;72.20
18287;DHT22;9269;50.838;12.094;2022-11-23T04:34:15;6.00;72.30
18287;DHT22;9269;50.838;12.094;2022-11-23T04:36:43;5.90;72.40
18287;DHT22;9269;50.838;12.094;2022-11-23T04:39:12;6.00;72.30
18287;DHT22;9269;50.838;12.094;2022-11-23T04:41:41;5.90;72.20
18287;DHT22;9269;50.838;12.094;2022-11-23T04:44:09;5.80;72.20
18287;DHT22;9269;50.838;12.094;2022-11-23T04:46:39;5.90;72.20
18287;DHT22;9269;50.838;12.094;2022-11-23T04:49:08;6.10;72.20
18287;DHT22;9269;50.838;12.094;2022-11-23T04:51:36;6.00;72.30
18287;DHT22;9269;50.838;12.094;2022-11-23T04:54:05;5.90;72.40
18287;DHT22;9269;50.838;12.094;2022-11-23T04:56:34;5.90;72.50
18287;DHT22;9269;50.838;12.094;2022-11-23T04:59:02;5.90;72.20
18287;DHT22;9269;50.838;12.094;2022-11-23T05:01:31;5.90;72.30
18287;DHT22;9269;50.838;12.094;2022-11-23T05:04:01;5.70;72.30
18287;DHT22;9269;50.838;12.094;2022-11-23T05:06:29;5.90;72.30
18287;DHT22;9269;50.838;12.094;2022-11-23T05:08:58;6.00;72.20
18287;DHT22;9269;50.838;12.094;2022-11-23T05:11:27;5.80;72.10
18287;DHT22;9269;50.838;12.094;2022-11-23T05:13:56;5.80;72.30
18287;DHT22;9269;50.838;12.094;2022-11-23T05:16:25;5.80;72.30
18287;DHT22;9269;50.838;12.094;2022-11-23T05:18:54;5.70;72.20
18287;DHT22;9269;50.838;12.094;2022-11-23T05:21:24;5.80;72.40
18287;DHT22;9269;50.838;12.094;2022-11-23T05:23:52;5.90;72.30
18287;DHT22;9269;50.838;12.094;2022-11-23T05:26:20;5.70;72.30
18287;DHT22;9269;50.838;12.094;2022-11-23T05:28:49;5.90;72.20
18287;DHT22;9269;50.838;12.094;2022-11-23T05:31:17;5.80;72.30
18287;DHT22;9269;50.838;12.094;2022-11-23T05:33:47;5.70;72.30
18287;DHT22;9269;50.838;12.094;2022-11-23T05:36:15;5.80;72.50
18287;DHT22;9269;50.838;12.094;2022-11-23T05:38:45;5.80;72.40
18287;DHT22;9269;50.838;12.094;2022-11-23T05:41:14;5.70;72.40
18287;DHT22;9269;50.838;12.094;2022-11-23T05:43:42;5.70;72.30
18287;DHT22;9269;50.838;12.094;2022-11-23T05:46:11;5.70;72.40
18287;DHT22;9269;50.838;12.094;2022-11-23T05:48:39;5.60;72.40
18287;DHT22;9269;50.838;12.094;2022-11-23T05:51:08;5.70;72.30
18287;DHT22;9269;50.838;12.094;2022-11-23T05:53:36;5.60;72.40
18287;DHT22;9269;50.838;12.094;2022-11-23T05:56:06;5.70;72.40
18287;DHT22;9269;50.838;12.094;2022-11-23T05:58:35;5.60;72.40
18287;DHT22;9269;50.838;12.094;2022-11-23T06:01:23;5.80;72.30
18287;DHT22;9269;50.838;12.094;2022-11-23T06:03:51;5.70;72.40
18287;DHT22;9269;50.838;12.094;2022-11-23T06:06:20;5.60;72.40
18287;DHT22;9269;50.838;12.094;2022-11-23T06:08:48;5.60;72.30
18287;DHT22;9269;50.838;12.094;2022-11-23T06:11:18;5.70;72.40
18287;DHT22;9269;50.838;12.094;2022-11-23T06:13:47;5.50;72.40
18287;DHT22;9269;50.838;12.094;2022-11-23T06:16:15;5.60;72.30
18287;DHT22;9269;50.838;12.094;2022-11-23T06:18:44;5.40;72.40
18287;DHT22;9269;50.838;12.094;2022-11-23T06:21:12;5.40;72.50
18287;DHT22;9269;50.838;12.094;2022-11-23T06:23:43;5.60;72.40
18287;DHT22;9269;50.838;12.094;2022-11-23T06:26:13;5.50;72.40
18287;DHT22;9269;50.838;12.094;2022-11-23T06:28:43;5.60;72.50
18287;DHT22;9269;50.838;12.094;2022-11-23T06:31:11;5.70;72.50
18287;DHT22;9269;50.838;12.094;2022-11-23T06:33:40;5.80;72.50
18287;DHT22;9269;50.838;12.094;2022-11-23T06:36:10;5.50;72.40
18287;DHT22;9269;50.838;12.094;2022-11-23T06:38:38;5.50;72.40
18287;DHT22;9269;50.838;12.094;2022-11-23T06:41:07;5.70;72.30
18287;DHT22;9269;50.838;12.094;2022-11-23T06:43:35;5.60;72.50
18287;DHT22;9269;50.838;12.094;2022-11-23T06:46:10;5.60;72.30
18287;DHT22;9269;50.838;12.094;2022-11-23T06:48:42;5.60;72.40
18287;DHT22;9269;50.838;12.094;2022-11-23T06:51:11;5.70;72.30
18287;DHT22;9269;50.838;12.094;2022-11-23T06:53:39;5.60;72.30
18287;DHT22;9269;50.838;12.094;2022-11-23T06:56:08;5.60;72.20
18287;DHT22;9269;50.838;12.094;2022-11-23T06:58:37;5.80;72.30
18287;DHT22;9269;50.838;12.094;2022-11-23T07:01:06;5.60;72.30
18287;DHT22;9269;50.838;12.094;2022-11-23T07:03:37;5.60;72.20
18287;DHT22;9269;50.838;12.094;2022-11-23T07:06:07;5.70;72.30
18287;DHT22;9269;50.838;12.094;2022-11-23T07:08:36;5.60;72.30
18287;DHT22;9269;50.838;12.094;2022-11-23T07:11:09;5.80;72.40
18287;DHT22;9269;50.838;12.094;2022-11-23T07:13:41;5.60;72.30
18287;DHT22;9269;50.838;12.094;2022-11-23T07:16:09;5.60;72.40
18287;DHT22;9269;50.838;12.094;2022-11-23T07:18:39;5.80;72.40
18287;DHT22;9269;50.838;12.094;2022-11-23T07:21:07;5.80;72.30
18287;DHT22;9269;50.838;12.094;2022-11-23T07:23:36;6.10;72.50
18287;DHT22;9269;50.838;12.094;2022-11-23T07:26:07;6.00;72.40
18287;DHT22;9269;50.838;12.094;2022-11-23T07:28:36;6.10;72.60
18287;DHT22;9269;50.838;12.094;2022-11-23T07:31:05;6.10;72.60
18287;DHT22;9269;50.838;12.094;2022-11-23T07:33:34;6.10;72.50
18287;DHT22;9269;50.838;12.094;2022-11-23T07:36:04;6.20;72.50
18287;DHT22;9269;50.838;12.094;2022-11-23T07:38:33;6.20;72.60
18287;DHT22;9269;50.838;12.094;2022-11-23T07:41:01;6.10;72.70
18287;DHT22;9269;50.838;12.094;2022-11-23T07:43:30;6.30;72.50
18287;DHT22;9269;50.838;12.094;2022-11-23T07:45:59;6.10;72.50
18287;DHT22;9269;50.838;12.094;2022-11-23T07:48:27;6.40;72.60
18287;DHT22;9269;50.838;12.094;2022-11-23T07:51:03;6.30;72.50
18287;DHT22;9269;50.838;12.094;2022-11-23T07:53:32;6.30;72.50
18287;DHT22;9269;50.838;12.094;2022-11-23T07:56:03;6.40;72.70
18287;DHT22;9269;50.838;12.094;2022-11-23T07:58:31;6.40;72.60
18287;DHT22;9269;50.838;12.094;2022-11-23T08:01:01;6.20;72.30
18287;DHT22;9269;50.838;12.094;2022-11-23T08:03:29;6.30;72.50
18287;DHT22;9269;50.838;12.094;2022-11-23T08:05:58;6.30;72.50
18287;DHT22;9269;50.838;12.094;2022-11-23T08:08:28;6.20;72.40
18287;DHT22;9269;50.838;12.094;2022-11-23T08:10:57;6.40;72.50
18287;DHT22;9269;50.838;12.094;2022-11-23T08:13:26;6.30;72.60
18287;DHT22;9269;50.838;12.094;2022-11-23T08:15:55;6.20;72.50
18287;DHT22;9269;50.838;12.094;2022-11-23T08:18:25;6.20;72.50
18287;DHT22;9269;50.838;12.094;2022-11-23T08:20:53;6.30;72.60
18287;DHT22;9269;50.838;12.094;2022-11-23T08:23:22;6.40;72.70
18287;DHT22;9269;50.838;12.094;2022-11-23T08:25:53;6.40;72.70
18287;DHT22;9269;50.838;12.094;2022-11-23T08:28:21;6.70;72.70
18287;DHT22;9269;50.838;12.094;2022-11-23T08:30:50;6.60;72.50
18287;DHT22;9269;50.838;12.094;2022-11-23T08:33:18;6.70;72.50
18287;DHT22;9269;50.838;12.094;2022-11-23T08:35:47;6.70;72.60
18287;DHT22;9269;50.838;12.094;2022-11-23T08:38:15;6.80;72.60
18287;DHT22;9269;50.838;12.094;2022-11-23T08:40:44;7.10;72.40
18287;DHT22;9269;50.838;12.094;2022-11-23T08:43:15;7.10;72.30
18287;DHT22;9269;50.838;12.094;2022-11-23T08:45:44;7.10;72.40
18287;DHT22;9269;50.838;12.094;2022-11-23T08:48:12;7.30;72.40
18287;DHT22;9269;50.838;12.094;2022-11-23T08:50:41;7.30;72.50
18287;DHT22;9269;50.838;12.094;2022-11-23T08:53:10;7.70;72.40
18287;DHT22;9269;50.838;12.094;2022-11-23T08:55:39;7.80;72.30
18287;DHT22;9269;50.838;12.094;2022-11-23T08:58:07;7.90;72.40
18287;DHT22;9269;50.838;12.094;2022-11-23T09:00:41;7.80;72.30
18287;DHT22;9269;50.838;12.094;2022-11-23T09:03:09;7.90;72.40
18287;DHT22;9269;50.838;12.094;2022-11-23T09:05:38;7.80;72.50
18287;DHT22;9269;50.838;12.094;2022-11-23T09:08:06;7.70;72.40
18287;DHT22;9269;50.838;12.094;2022-11-23T09:10:36;7.70;72.50
18287;DHT22;9269;50.838;12.094;2022-11-23T09:13:05;7.80;72.50
18287;DHT22;9269;50.838;12.094;2022-11-23T09:15:34;7.80;72.40
18287;DHT22;9269;50.838;12.094;2022-11-23T09:18:04;8.00;72.30
18287;DHT22;9269;50.838;12.094;2022-11-23T09:20:32;7.90;72.30
18287;DHT22;9269;50.838;12.094;2022-11-23T09:23:01;7.90;72.20
18287;DHT22;9269;50.838;12.094;2022-11-23T09:25:29;8.10;72.20
18287;DHT22;9269;50.838;12.094;2022-11-23T09:27:58;8.00;72.30
18287;DHT22;9269;50.838;12.094;2022-11-23T09:30:27;8.20;72.00
18287;DHT22;9269;50.838;12.094;2022-11-23T09:32:55;8.30;72.00
18287;DHT22;9269;50.838;12.094;2022-11-23T09:35:25;8.50;71.90
18287;DHT22;9269;50.838;12.094;2022-11-23T09:37:55;8.70;72.10
18287;DHT22;9269;50.838;12.094;2022-11-23T09:40:27;8.80;72.10
18287;DHT22;9269;50.838;12.094;2022-11-23T09:43:07;9.00;71.80
18287;DHT22;9269;50.838;12.094;2022-11-23T09:45:44;9.20;71.90
18287;DHT22;9269;50.838;12.094;2022-11-23T09:48:36;9.20;71.90
18287;DHT22;9269;50.838;12.094;2022-11-23T09:51:14;9.40;72.10
18287;DHT22;9269;50.838;12.094;2022-11-23T09:53:46;9.50;71.90
18287;DHT22;9269;50.838;12.094;2022-11-23T09:56:19;9.60;71.80
18287;DHT22;9269;50.838;12.094;2022-11-23T09:58:51;9.70;71.90
18287;DHT22;9269;50.838;12.094;2022-11-23T10:01:20;9.80;72.00
18287;DHT22;9269;50.838;12.094;2022-11-23T10:03:49;9.80;71.90
18287;DHT22;9269;50.838;12.094;2022-11-23T10:06:21;9.90;71.90
18287;DHT22;9269;50.838;12.094;2022-11-23T10:08:58;10.00;72.00
18287;DHT22;9269;50.838;12.094;2022-11-23T10:11:47;10.10;71.80
18287;DHT22;9269;50.838;12.094;2022-11-23T10:14:32;10.20;71.80
18287;DHT22;9269;50.838;12.094;2022-11-23T10:17:11;10.30;71.70
18287;DHT22;9269;50.838;12.094;2022-11-23T10:19:55;10.30;71.70
18287;DHT22;9269;50.838;12.094;2022-11-23T10:22:31;10.40;71.60
18287;DHT22;9269;50.838;12.094;2022-11-23T10:25:08;10.30;71.80
18287;DHT22;9269;50.838;12.094;2022-11-23T10:27:41;10.40;71.70
18287;DHT22;9269;50.838;12.094;2022-11-23T10:30:12;10.40;71.80
18287;DHT22;9269;50.838;12.094;2022-11-23T10:32:44;10.40;71.70
18287;DHT22;9269;50.838;12.094;2022-11-23T10:35:15;10.50;71.80
18287;DHT22;9269;50.838;12.094;2022-11-23T10:37:47;10.60;71.60
18287;DHT22;9269;50.838;12.094;2022-11-23T10:40:22;10.60;71.70
18287;DHT22;9269;50.838;12.094;2022-11-23T10:42:53;10.70;71.50
18287;DHT22;9269;50.838;12.094;2022-11-23T10:45:25;10.70;71.50
18287;DHT22;9269;50.838;12.094;2022-11-23T10:47:55;10.70;71.50
18287;DHT22;9269;50.838;12.094;2022-11-23T10:50:26;10.70;71.50
18287;DHT22;9269;50.838;12.094;2022-11-23T10:52:59;10.70;71.50
18287;DHT22;9269;50.838;12.094;2022-11-23T10:55:30;10.70;71.70
18287;DHT22;9269;50.838;12.094;2022-11-23T10:58:00;10.70;71.40
18287;DHT22;9269;50.838;12.094;2022-11-23T11:00:28;10.70;71.60
18287;DHT22;9269;50.838;12.094;2022-11-23T11:02:58;10.80;71.40
18287;DHT22;9269;50.838;12.094;2022-11-23T11:05:31;10.90;71.30
18287;DHT22;9269;50.838;12.094;2022-11-23T11:08:24;10.90;71.50
18287;DHT22;9269;50.838;12.094;2022-11-23T11:10:59;10.90;71.60
18287;DHT22;9269;50.838;12.094;2022-11-23T11:13:30;11.00;71.50
18287;DHT22;9269;50.838;12.094;2022-11-23T11:16:02;11.00;71.60
18287;DHT22;9269;50.838;12.094;2022-11-23T11:18:32;11.00;71.70
18287;DHT22;9269;50.838;12.094;2022-11-23T11:21:04;10.90;71.50
18287;DHT22;9269;50.838;12.094;2022-11-23T11:23:38;11.10;71.30
18287;DHT22;9269;50.838;12.094;2022-11-23T11:26:18;11.00;71.40
18287;DHT22;9269;50.838;12.094;2022-11-23T11:28:50;11.00;71.50
18287;DHT22;9269;50.838;12.094;2022-11-23T11:31:34;11.00;71.60
18287;DHT22;9269;50.838;12.094;2022-11-23T11:34:12;11.00;71.60
18287;DHT22;9269;50.838;12.094;2022-11-23T11:36:45;11.00;71.50
18287;DHT22;9269;50.838;12.094;2022-11-23T11:39:22;10.90;71.60
18287;DHT22;9269;50.838;12.094;2022-11-23T11:41:52;11.00;71.40
18287;DHT22;9269;50.838;12.094;2022-11-23T11:44:23;11.00;71.40
18287;DHT22;9269;50.838;12.094;2022-11-23T11:46:56;11.00;71.30
18287;DHT22;9269;50.838;12.094;2022-11-23T11:49:30;11.00;71.40
18287;DHT22;9269;50.838;12.094;2022-11-23T11:52:04;11.00;71.30
18287;DHT22;9269;50.838;12.094;2022-11-23T11:54:41;10.90;71.40
18287;DHT22;9269;50.838;12.094;2022-11-23T11:57:16;10.80;71.30
18287;DHT22;9269;50.838;12.094;2022-11-23T11:59:48;10.80;71.30
18287;DHT22;9269;50.838;12.094;2022-11-23T12:02:22;10.90;71.20
18287;DHT22;9269;50.838;12.094;2022-11-23T12:05:10;10.90;71.30
18287;DHT22;9269;50.838;12.094;2022-11-23T12:07:47;10.90;71.10
18287;DHT22;9269;50.838;12.094;2022-11-23T12:10:26;10.80;71.10
18287;DHT22;9269;50.838;12.094;2022-11-23T12:12:55;10.80;71.10
18287;DHT22;9269;50.838;12.094;2022-11-23T12:15:31;10.90;71.10
18287;DHT22;9269;50.838;12.094;2022-11-23T12:18:40;10.70;71.00
18287;DHT22;9269;50.838;12.094;2022-11-23T12:21:24;10.80;70.90
18287;DHT22;9269;50.838;12.094;2022-11-23T12:24:04;10.80;70.90
18287;DHT22;9269;50.838;12.094;2022-11-23T12:26:47;10.90;70.90
18287;DHT22;9269;50.838;12.094;2022-11-23T12:29:46;10.90;70.80
18287;DHT22;9269;50.838;12.094;2022-11-23T12:32:24;10.90;70.80
18287;DHT22;9269;50.838;12.094;2022-11-23T12:35:12;10.90;64.30
18287;DHT22;9269;50.838;12.094;2022-11-23T12:37:57;10.90;70.70
18287;DHT22;9269;50.838;12.094;2022-11-23T12:40:47;11.00;70.70
18287;DHT22;9269;50.838;12.094;2022-11-23T12:43:22;10.90;64.20
18287;DHT22;9269;50.838;12.094;2022-11-23T12:46:13;10.90;64.10
18287;DHT22;9269;50.838;12.094;2022-11-23T12:48:54;10.90;63.80
18287;DHT22;9269;50.838;12.094;2022-11-23T12:51:32;10.90;64.30
18287;DHT22;9269;50.838;12.094;2022-11-23T12:54:18;11.00;64.40
18287;DHT22;9269;50.838;12.094;2022-11-23T12:56:59;11.00;63.90
18287;DHT22;9269;50.838;12.094;2022-11-23T12:59:39;11.00;64.20
18287;DHT22;9269;50.838;12.094;2022-11-23T13:02:25;10.80;64.30
18287;DHT22;9269;50.838;12.094;2022-11-23T13:05:16;10.90;64.00
18287;DHT22;9269;50.838;12.094;2022-11-23T13:08:09;10.80;64.20
18287;DHT22;9269;50.838;12.094;2022-11-23T13:10:48;10.80;63.80
18287;DHT22;9269;50.838;12.094;2022-11-23T13:13:30;10.70;63.90
18287;DHT22;9269;50.838;12.094;2022-11-23T13:16:14;10.70;63.80
18287;DHT22;9269;50.838;12.094;2022-11-23T13:18:59;10.60;63.40
18287;DHT22;9269;50.838;12.094;2022-11-23T13:21:35;10.60;63.50
18287;DHT22;9269;50.838;12.094;2022-11-23T13:24:23;10.60;63.40
18287;DHT22;9269;50.838;12.094;2022-11-23T13:29:59;10.70;63.10
18287;DHT22;9269;50.838;12.094;2022-11-23T13:32:45;10.70;63.70
18287;DHT22;9269;50.838;12.094;2022-11-23T13:35:53;10.60;63.80
18287;DHT22;9269;50.838;12.094;2022-11-23T13:38:41;10.50;63.60
18287;DHT22;9269;50.838;12.094;2022-11-23T13:44:27;10.60;63.40
18287;DHT22;9269;50.838;12.094;2022-11-23T13:47:17;10.60;63.60
18287;DHT22;9269;50.838;12.094;2022-11-23T13:49:49;10.60;63.40
18287;DHT22;9269;50.838;12.094;2022-11-23T13:52:28;10.60;63.40
18287;DHT22;9269;50.838;12.094;2022-11-23T13:55:01;10.60;63.30
18287;DHT22;9269;50.838;12.094;2022-11-23T13:57:36;10.60;63.30
18287;DHT22;9269;50.838;12.094;2022-11-23T14:03:49;10.60;62.80
18287;DHT22;9269;50.838;12.094;2022-11-23T14:06:27;10.60;62.90
18287;DHT22;9269;50.838;12.094;2022-11-23T14:09:02;10.60;63.10
18287;DHT22;9269;50.838;12.094;2022-11-23T14:11:38;10.60;62.90
18287;DHT22;9269;50.838;12.094;2022-11-23T14:14:16;10.60;62.70
18287;DHT22;9269;50.838;12.094;2022-11-23T14:19:35;10.60;62.70
18287;DHT22;9269;50.838;12.094;2022-11-23T14:22:18;10.60;62.70
18287;DHT22;9269;50.838;12.094;2022-11-23T14:25:01;10.60;63.00
18287;DHT22;9269;50.838;12.094;2022-11-23T14:27:45;10.60;62.70
18287;DHT22;9269;50.838;12.094;2022-11-23T14:30:32;10.50;62.80
18287;DHT22;9269;50.838;12.094;2022-11-23T14:33:15;10.50;63.10
18287;DHT22;9269;50.838;12.094;2022-11-23T14:35:53;10.50;62.70
18287;DHT22;9269;50.838;12.094;2022-11-23T14:38:44;10.40;62.90
18287;DHT22;9269;50.838;12.094;2022-11-23T14:41:15;10.50;63.10
18287;DHT22;9269;50.838;12.094;2022-11-23T14:43:46;10.40;63.20
18287;DHT22;9269;50.838;12.094;2022-11-23T14:46:17;10.30;62.90
18287;DHT22;9269;50.838;12.094;2022-11-23T14:48:47;10.30;63.20
18287;DHT22;9269;50.838;12.094;2022-11-23T14:51:18;10.20;63.20
18287;DHT22;9269;50.838;12.094;2022-11-23T14:53:52;10.20;63.10
18287;DHT22;9269;50.838;12.094;2022-11-23T14:56:30;10.00;63.30
18287;DHT22;9269;50.838;12.094;2022-11-23T14:59:02;10.00;63.20
18287;DHT22;9269;50.838;12.094;2022-11-23T15:01:33;9.90;63.60
18287;DHT22;9269;50.838;12.094;2022-11-23T15:04:07;9.90;63.60
18287;DHT22;9269;50.838;12.094;2022-11-23T15:06:39;9.80;63.60
18287;DHT22;9269;50.838;12.094;2022-11-23T15:09:21;9.70;64.10
18287;DHT22;9269;50.838;12.094;2022-11-23T15:12:05;9.60;63.60
18287;DHT22;9269;50.838;12.094;2022-11-23T15:14:41;9.60;63.70
18287;DHT22;9269;50.838;12.094;2022-11-23T15:17:14;9.40;64.00
18287;DHT22;9269;50.838;12.094;2022-11-23T15:19:43;9.40;64.00
18287;DHT22;9269;50.838;12.094;2022-11-23T15:22:20;9.40;64.00
18287;DHT22;9269;50.838;12.094;2022-11-23T15:24:52;9.10;64.00
18287;DHT22;9269;50.838;12.094;2022-11-23T15:27:24;9.20;63.90
18287;DHT22;9269;50.838;12.094;2022-11-23T15:29:55;9.30;63.70
18287;DHT22;9269;50.838;12.094;2022-11-23T15:32:27;9.10;64.20
18287;DHT22;9269;50.838;12.094;2022-11-23T15:35:04;9.00;63.90
18287;DHT22;9269;50.838;12.094;2022-11-23T15:37:40;9.00;63.90
18287;DHT22;9269;50.838;12.094;2022-11-23T15:40:14;9.00;63.70
18287;DHT22;9269;50.838;12.094;2022-11-23T15:42:44;9.00;63.60
18287;DHT22;9269;50.838;12.094;2022-11-23T15:45:37;9.00;63.90
18287;DHT22;9269;50.838;12.094;2022-11-23T15:48:11;8.90;63.80
18287;DHT22;9269;50.838;12.094;2022-11-23T15:50:46;8.80;63.70
18287;DHT22;9269;50.838;12.094;2022-11-23T15:53:16;8.80;64.00
18287;DHT22;9269;50.838;12.094;2022-11-23T15:55:47;8.70;63.80
18287;DHT22;9269;50.838;12.094;2022-11-23T15:58:17;8.80;63.90
18287;DHT22;9269;50.838;12.094;2022-11-23T16:00:47;8.70;64.00
18287;DHT22;9269;50.838;12.094;2022-11-23T16:03:39;8.60;63.90
18287;DHT22;9269;50.838;12.094;2022-11-23T16:06:22;8.60;64.10
18287;DHT22;9269;50.838;12.094;2022-11-23T16:08:52;8.50;64.30
18287;DHT22;9269;50.838;12.094;2022-11-23T16:11:27;8.40;64.00
18287;DHT22;9269;50.838;12.094;2022-11-23T16:14:14;8.40;70.70
18287;DHT22;9269;50.838;12.094;2022-11-23T16:16:44;8.40;70.70
18287;DHT22;9269;50.838;12.094;2022-11-23T16:19:21;8.40;64.30
18287;DHT22;9269;50.838;12.094;2022-11-23T16:21:54;8.40;64.10
18287;DHT22;9269;50.838;12.094;2022-11-23T16:24:30;8.40;64.40
18287;DHT22;9269;50.838;12.094;2022-11-23T16:27:11;8.20;64.30
18287;DHT22;9269;50.838;12.094;2022-11-23T16:29:41;8.30;64.20